createdAt,value
2022-12-17T00:03:53.278Z,8.17
2022-12-17T00:09:18.735Z,7.66
2022-12-17T00:14:40.275Z,6.05
2022-12-17T00:20:04.298Z,5.15
2022-12-17T00:25:26.493Z,4.50
2022-12-17T00:30:48.273Z,3.98
2022-12-17T00:36:12.138Z,3.58
2022-12-17T00:41:34.081Z,3.25
2022-12-17T00:46:58.126Z,2.97
2022-12-17T00:52:20.464Z,2.77
2022-12-17T00:57:42.313Z,2.61
2022-12-17T01:03:04.637Z,2.48
2022-12-17T01:08:30.569Z,2.37
2022-12-17T01:13:52.192Z,2.28
2022-12-17T01:19:15.377Z,2.21
2022-12-17T01:24:41.612Z,2.15
2022-12-17T01:30:08.009Z,2.09
2022-12-17T01:35:29.680Z,3.83
2022-12-17T01:40:53.276Z,7.94
2022-12-17T01:46:15.914Z,7.31
2022-12-17T01:51:38.722Z,5.69
2022-12-17T02:02:59.879Z,4.10
2022-12-17T02:09:28.530Z,3.60
2022-12-17T02:15:35.668Z,3.12
2022-12-17T02:21:08.462Z,2.74
2022-12-17T02:27:04.737Z,2.52
2022-12-17T02:32:30.551Z,2.34
2022-12-17T02:37:53.425Z,2.19
2022-12-17T02:43:23.777Z,2.08
2022-12-17T02:48:52.280Z,2.00
2022-12-17T02:54:15.350Z,1.95
2022-12-17T02:59:40.686Z,2.01
2022-12-17T03:05:36.009Z,5.58
2022-12-17T03:10:53.748Z,8.06
2022-12-17T03:16:35.678Z,6.19
2022-12-17T03:22:08.591Z,4.87
2022-12-17T03:27:54.905Z,4.11
2022-12-17T03:33:19.080Z,3.53
2022-12-17T03:44:30.002Z,2.79
2022-12-17T03:50:40.023Z,2.55
2022-12-17T03:56:12.507Z,2.37
2022-12-17T04:02:01.100Z,2.17
2022-12-17T04:07:28.042Z,2.04
2022-12-17T04:12:56.010Z,2.02
2022-12-17T04:18:34.086Z,1.94
2022-12-17T04:24:29.623Z,1.85
2022-12-17T04:29:53.282Z,1.80
2022-12-17T04:35:16.642Z,1.73
2022-12-17T04:40:44.072Z,1.66
2022-12-17T04:46:09.244Z,1.62
2022-12-17T04:51:36.752Z,1.59
2022-12-17T04:56:59.309Z,1.58
2022-12-17T05:02:29.701Z,3.35
2022-12-17T05:07:54.814Z,7.57
2022-12-17T05:13:19.413Z,6.83
2022-12-17T05:18:44.348Z,5.19
2022-12-17T05:24:09.997Z,4.27
2022-12-17T05:29:33.530Z,3.60
2022-12-17T05:35:01.765Z,3.06
2022-12-17T05:40:25.494Z,2.65
2022-12-17T05:45:48.117Z,2.35
2022-12-17T05:57:04.713Z,1.94
2022-12-17T06:02:33.019Z,1.79
2022-12-17T06:07:58.239Z,1.68
2022-12-17T06:13:21.407Z,1.59
2022-12-17T06:19:06.302Z,1.50
2022-12-17T06:24:29.972Z,1.44
2022-12-17T06:30:22.554Z,1.41
2022-12-17T06:35:54.983Z,1.38
2022-12-17T06:41:22.367Z,1.36
2022-12-17T06:46:45.455Z,1.35
2022-12-17T06:52:13.811Z,3.07
2022-12-17T06:57:54.066Z,7.37
2022-12-17T07:03:17.386Z,7.05
2022-12-17T07:08:40.630Z,5.30
2022-12-17T07:19:44.291Z,3.65
2022-12-17T07:25:06.807Z,3.10
2022-12-17T07:30:29.521Z,2.67
2022-12-17T07:35:57.882Z,2.36
2022-12-17T07:48:10.573Z,2.01
2022-12-17T07:53:49.613Z,1.95
2022-12-17T07:59:12.094Z,1.92
2022-12-17T08:04:40.117Z,1.92
2022-12-17T08:10:05.938Z,1.88
2022-12-17T08:15:37.596Z,1.83
2022-12-17T08:21:34.361Z,1.80
2022-12-17T08:26:58.595Z,1.77
2022-12-17T08:32:56.435Z,1.74
2022-12-17T08:39:15.583Z,1.75
2022-12-17T08:44:42.548Z,1.82
2022-12-17T08:50:13.787Z,1.89
2022-12-17T08:56:16.308Z,1.97
2022-12-17T09:01:58.748Z,2.05
2022-12-17T09:15:32.410Z,2.20
2022-12-17T09:20:34.933Z,2.26
2022-12-17T09:26:24.119Z,2.27
2022-12-17T09:38:00.057Z,2.37
2022-12-17T09:44:27.051Z,2.40
2022-12-17T09:50:11.367Z,2.43
2022-12-17T09:55:56.987Z,2.48
2022-12-17T10:01:47.611Z,2.52
2022-12-17T10:08:05.954Z,2.54
2022-12-17T10:14:15.616Z,2.53
2022-12-17T10:20:13.426Z,2.49
2022-12-17T10:25:36.881Z,2.45
2022-12-17T10:30:58.573Z,2.42
2022-12-17T10:36:22.590Z,2.37
2022-12-17T10:41:49.837Z,2.35
2022-12-17T10:47:16.228Z,2.32
2022-12-17T10:52:47.206Z,2.29
2022-12-17T10:58:10.907Z,2.19
2022-12-17T11:04:00.932Z,2.15
2022-12-17T11:09:23.920Z,2.14
2022-12-17T11:14:46.639Z,2.15
2022-12-17T11:21:04.258Z,2.11
2022-12-17T11:26:43.900Z,2.11
2022-12-17T11:35:27.441Z,2.13
2022-12-17T11:46:00.974Z,2.11
2022-12-17T11:51:57.412Z,2.10
2022-12-17T11:57:34.242Z,2.09
2022-12-17T12:03:29.401Z,2.02
2022-12-17T12:09:01.620Z,1.91
2022-12-17T12:21:29.231Z,1.83
2022-12-17T12:27:53.032Z,1.81
2022-12-17T12:33:21.068Z,1.74
2022-12-17T12:44:57.696Z,1.69
2022-12-17T12:51:04.803Z,1.64
2022-12-17T12:56:47.353Z,1.58
2022-12-17T13:02:14.177Z,1.59
2022-12-17T13:07:37.993Z,1.63
2022-12-17T13:13:14.827Z,1.62
2022-12-17T13:18:26.530Z,1.62
2022-12-17T13:23:50.574Z,1.62
2022-12-17T13:29:25.176Z,1.62
2022-12-17T13:34:36.945Z,1.63
2022-12-17T13:39:59.971Z,1.62
2022-12-17T13:45:04.602Z,1.61
2022-12-17T13:50:38.093Z,1.58
2022-12-17T13:55:41.313Z,1.55
2022-12-17T14:00:44.421Z,1.49
2022-12-17T14:05:48.084Z,1.48
2022-12-17T14:11:14.692Z,1.46
2022-12-17T14:16:21.519Z,1.42
2022-12-17T14:21:27.462Z,1.43
2022-12-17T14:26:30.703Z,1.47
2022-12-17T14:31:33.833Z,2.98
2022-12-17T14:36:42.330Z,7.17
2022-12-17T14:42:04.267Z,8.20
2022-12-17T14:47:28.755Z,6.11
2022-12-17T14:52:37.970Z,4.76
2022-12-17T14:57:41.151Z,3.94
2022-12-17T15:02:47.236Z,3.31
2022-12-17T15:07:52.168Z,2.81
2022-12-17T15:12:55.278Z,2.43
2022-12-17T15:17:58.453Z,2.16
2022-12-17T15:23:02.557Z,1.96
2022-12-17T15:28:07.002Z,1.78
2022-12-17T15:33:10.831Z,1.66
2022-12-17T15:38:14.148Z,1.56
2022-12-17T15:43:17.413Z,1.49
2022-12-17T15:48:23.498Z,1.42
2022-12-17T15:53:26.649Z,1.38
2022-12-17T15:58:31.130Z,1.35
2022-12-17T16:03:41.577Z,1.26
2022-12-17T16:08:53.160Z,2.94
2022-12-17T16:14:00.224Z,7.02
2022-12-17T16:19:04.302Z,7.83
2022-12-17T16:24:08.731Z,5.70
2022-12-17T16:29:14.490Z,4.47
2022-12-17T16:34:18.063Z,3.67
2022-12-17T16:39:21.743Z,2.95
2022-12-17T16:44:24.950Z,2.47
2022-12-17T16:49:28.115Z,2.13
2022-12-17T16:54:32.834Z,1.88
2022-12-17T16:59:35.944Z,1.70
2022-12-17T17:04:39.446Z,1.58
2022-12-17T17:09:42.508Z,1.48
2022-12-17T17:14:47.562Z,1.40
2022-12-17T17:19:52.284Z,1.35
2022-12-17T17:24:55.322Z,1.33
2022-12-17T17:30:03.626Z,1.31
2022-12-17T17:35:07.685Z,2.80
2022-12-17T17:40:11.707Z,6.82
2022-12-17T17:45:15.822Z,6.51
2022-12-17T17:50:19.097Z,4.82
2022-12-17T17:55:22.180Z,3.91
2022-12-17T18:00:25.302Z,3.27
2022-12-17T18:05:28.455Z,2.81
2022-12-17T18:10:32.344Z,2.53
2022-12-17T18:15:35.406Z,2.25
2022-12-17T18:20:38.654Z,2.04
2022-12-17T18:25:41.723Z,1.86
2022-12-17T18:30:44.931Z,1.69
2022-12-17T18:35:48.170Z,1.50
2022-12-17T18:40:51.482Z,1.34
2022-12-17T18:45:57.796Z,1.18
2022-12-17T18:51:06.150Z,1.08
2022-12-17T18:56:11.087Z,2.34
2022-12-17T19:01:28.953Z,6.57
2022-12-17T19:06:34.387Z,6.57
2022-12-17T19:11:43.328Z,4.78
2022-12-17T19:16:52.086Z,3.76
2022-12-17T19:22:02.498Z,2.95
2022-12-17T19:27:07.035Z,2.39
2022-12-17T19:32:14.652Z,2.15
2022-12-17T19:37:21.686Z,1.78
2022-12-17T19:42:25.881Z,1.48
2022-12-17T19:47:31.021Z,1.18
2022-12-17T19:52:36.121Z,0.92
2022-12-17T19:57:40.326Z,0.66
2022-12-17T20:02:45.486Z,0.47
2022-12-17T20:07:55.225Z,0.29
2022-12-17T20:13:15.944Z,0.33
2022-12-17T20:18:19.768Z,0.38
2022-12-17T20:23:28.792Z,0.33
2022-12-17T20:28:34.070Z,0.32
2022-12-17T20:33:37.794Z,0.30
2022-12-17T20:38:43.392Z,0.24
2022-12-17T20:43:47.596Z,0.18
2022-12-17T20:48:51.617Z,0.13
2022-12-17T20:53:57.081Z,0.05
2022-12-17T20:59:03.355Z,-0.01
2022-12-17T21:04:08.009Z,-0.04
2022-12-17T21:09:13.073Z,0.35
2022-12-17T21:14:30.445Z,4.34
2022-12-17T21:19:37.335Z,6.44
2022-12-17T21:24:44.415Z,4.57
2022-12-17T21:29:49.440Z,3.13
2022-12-17T21:34:53.802Z,2.33
2022-12-17T21:40:11.683Z,1.73
2022-12-17T21:45:15.786Z,1.26
2022-12-17T21:50:20.764Z,0.92
2022-12-17T21:55:25.177Z,0.68
2022-12-17T22:00:29.483Z,0.52
2022-12-17T22:05:48.183Z,0.43
2022-12-17T22:10:52.517Z,0.34
2022-12-17T22:15:56.966Z,0.26
2022-12-17T22:21:02.930Z,0.19
2022-12-17T22:26:11.262Z,0.16
2022-12-17T22:31:35.911Z,0.14
2022-12-17T22:39:03.449Z,0.13
2022-12-17T22:44:39.222Z,0.13
2022-12-17T22:48:04.869Z,0.17
2022-12-17T22:53:09.906Z,0.18
2022-12-17T22:58:18.045Z,0.15
2022-12-17T23:03:21.837Z,0.14
2022-12-17T23:08:25.884Z,0.17
2022-12-17T23:13:32.782Z,0.19
2022-12-17T23:18:36.976Z,0.20
2022-12-17T23:23:41.617Z,0.22
2022-12-17T23:28:46.094Z,0.28
2022-12-17T23:33:52.279Z,0.31
2022-12-17T23:39:09.571Z,0.33
2022-12-17T23:44:12.927Z,0.31
2022-12-17T23:49:16.599Z,0.31
2022-12-17T23:54:21.069Z,0.36
